Latest Coastal Weather Observations for Gold Coast Seaway

IDQ60701

Issued at 2:51 pm EST Monday 3 August 2015 (issued every 10 minutes, with the page automatically refreshed every 10 minutes)

About coastal observations | Map of coastal stations | Coastal observations for QLD | Marine services | Other Formats
Station Details ID: 040764 Name: GOLD COAST SEAWAY Lat: -27.94 Lon: 153.43 Height: 2.98 m
Data from the previous 72 hours. | See also: Recent months at Gold Coast Seaway
Date/Time
EST
Temp

°C
Wind Pressure Rain
since 9am
mm
Weather Cloud Vis
km
Sea
Height
m
Swell
Dir
 
Speed
knots
Gust
knots
hPa Trend Height
m
Period
s
Dir
03/02:30pm 25.5 NW 12 15 1013.9 - 0.0 - - - - - - -
03/02:00pm 25.3 NW 14 17 1014.1 - 0.0 - - - - - - -
03/01:30pm 24.9 NW 15 18 1014.4 - 0.0 - - - - - - -
03/01:00pm 24.7 NW 13 18 1014.7 - 0.0 - - - - - - -
03/12:30pm 24.2 NW 13 17 1015.3 - 0.0 - - - - - - -
03/12:00pm 23.9 NW 13 17 1015.8 - 0.0 - - - - - - -
03/11:30am 23.3 NW 15 19 1016.5 - 0.0 - - - - - - -
03/11:00am 22.7 NW 13 17 1017.1 - 0.0 - - - - - - -
03/10:30am 22.2 NW 12 16 1017.8 - 0.0 - - - - - - -
03/10:00am 21.6 NNW 9 16 1018.2 - 0.0 - - - - - - -
03/09:30am 20.8 N 10 13 1018.4 - 0.0 - - - - - - -
03/09:00am 19.5 NNW 5 7 1018.5 - 0.0 - - - - - - -
03/08:30am 18.4 NNW 6 11 1018.5 - 0.0 - - - - - - -
03/08:00am 16.9 NNW 7 9 1018.3 - 0.0 - - - - - - -
03/07:30am 15.2 NW 7 9 1018.1 - 0.0 - - - - - - -
03/07:00am 14.7 NW 7 9 1017.8 - 0.0 - - - - - - -
03/06:30am 14.6 NNW 9 11 1017.6 - 0.0 - - - - - - -
03/06:00am 14.8 NW 9 10 1017.7 - 0.0 - - - - - - -
03/05:30am 15.3 NW 9 10 1017.6 - 0.0 - - - - - - -
03/05:00am 15.4 NW 8 9 1017.5 - 0.0 - - - - - - -
03/04:30am 15.5 NW 7 9 1017.5 - 0.0 - - - - - - -
03/04:00am 15.5 NNW 6 8 1017.7 - 0.0 - - - - - - -
03/03:30am 16.0 NW 7 8 1017.7 - 0.0 - - - - - - -
03/03:00am 16.2 NW 8 9 1017.9 - 0.0 - - - - - - -
03/02:30am 16.3 NW 7 9 1018.1 - 0.0 - - - - - - -
03/02:00am 16.7 NW 6 7 1018.3 - 0.0 - - - - - - -
03/01:30am 16.9 NW 7 9 1018.4 - 0.0 - - - - - - -
03/01:00am 17.2 NW 7 9 1018.7 - 0.0 - - - - - - -
03/12:30am 17.4 NNW 7 9 1018.8 - 0.0 - - - - - - -
03/12:00am 17.5 NW 7 8 1019.1 - 0.0 - - - - - - -
 
Date/Time
EST
Temp

°C
Wind Pressure Rain
since 9am
mm
Weather Cloud Vis
km
Sea
Height
m
Swell
Dir
 
Speed
knots
Gust
knots
hPa Trend Height
m
Period
s
Dir
02/11:30pm 17.7 NW 8 9 1019.4 - 0.0 - - - - - - -
02/11:00pm 17.8 NW 8 10 1019.4 - 0.0 - - - - - - -
02/10:30pm 18.0 NW 9 11 1019.5 - 0.0 - - - - - - -
02/10:00pm 18.1 NNW 9 12 1019.4 - 0.0 - - - - - - -
02/09:30pm 17.9 NW 8 11 1019.4 - 0.0 - - - - - - -
02/09:00pm 17.4 NW 5 7 1019.6 - 0.0 - - - - - - -
02/08:30pm 17.4 WNW 5 7 1019.4 - 0.0 - - - - - - -
02/08:00pm 17.5 NNW 6 7 1019.3 - 0.0 - - - - - - -
02/07:30pm 17.8 NNW 5 6 1019.2 - 0.0 - - - - - - -
02/07:00pm 18.3 NNW 7 10 1019.2 - 0.0 - - - - - - -
02/06:30pm 18.7 NNW 7 8 1019.0 - 0.0 - - - - - - -
02/06:00pm 19.3 NNW 7 10 1018.6 - 0.0 - - - - - - -
02/05:30pm 19.9 NNW 10 15 1018.3 - 0.0 - - - - - - -
02/05:00pm 20.7 N 9 13 1018.4 - 0.0 - - - - - - -
02/04:30pm 21.8 N 10 13 1018.5 - 0.0 - - - - - - -
02/04:00pm 22.3 N 12 16 1018.5 - 0.0 - - - - - - -
02/03:30pm 22.9 N 14 18 1018.5 - 0.0 - - - - - - -
02/03:00pm 22.9 N 13 17 1018.6 - 0.0 - - - - - - -
02/02:30pm 23.4 N 15 20 1018.7 - 0.0 - - - - - - -
02/02:00pm 23.3 N 14 20 1018.9 - 0.0 - - - - - - -
02/01:30pm 23.4 N 14 18 1019.2 - 0.0 - - - - - - -
02/01:00pm 23.2 N 15 20 1019.8 - 0.0 - - - - - - -
02/12:30pm 22.9 N 16 21 1020.3 - 0.0 - - - - - - -
02/12:00pm 22.9 N 14 17 1020.8 - 0.0 - - - - - - -
02/11:30am 21.8 NNW 13 18 1021.5 - 0.0 - - - - - - -
02/11:00am 21.4 NNW 12 17 1022.1 - 0.0 - - - - - - -
02/10:30am 21.3 NNW 13 20 1022.4 - 0.0 - - - - - - -
02/10:00am 20.5 NNW 12 17 1022.7 - 0.0 - - - - - - -
02/09:30am 18.9 NNW 7 10 1022.8 - 0.0 - - - - - - -
02/09:00am 18.3 NW 7 10 1022.8 - 0.0 - - - - - - -
02/08:30am 17.0 NW 7 9 1022.7 - 0.0 - - - - - - -
02/08:00am 15.2 NW 8 9 1022.6 - 0.0 - - - - - - -
02/07:30am 14.0 NW 8 10 1022.6 - 0.0 - - - - - - -
02/07:00am 13.3 NW 8 10 1022.4 - 0.0 - - - - - - -
02/06:30am 13.4 NW 9 10 1022.1 - 0.0 - - - - - - -
02/06:00am 13.8 NNW 8 10 1021.7 - 0.0 - - - - - - -
02/05:30am 13.7 NW 8 9 1021.5 - 0.0 - - - - - - -
02/05:00am 13.6 NW 7 8 1021.4 - 0.0 - - - - - - -
02/04:30am 13.8 NW 6 8 1021.2 - 0.0 - - - - - - -
02/04:00am 14.0 NNW 6 7 1021.3 - 0.0 - - - - - - -
02/03:30am 13.2 N 5 6 1021.4 - 0.0 - - - - - - -
02/03:00am 12.6 NW 4 4 1021.6 - 0.0 - - - - - - -
02/02:30am 12.7 WNW 6 6 1021.7 - 0.0 - - - - - - -
02/02:00am 13.1 WNW 5 6 1022.0 - 0.0 - - - - - - -
02/01:30am 14.1 WNW 5 6 1022.3 - 0.0 - - - - - - -
02/01:00am 14.8 WNW 5 5 1022.4 - 0.0 - - - - - - -
02/12:30am 15.0 NW 5 6 1022.7 - 0.0 - - - - - - -
02/12:00am 15.1 NW 5 6 1022.8 - 0.0 - - - - - - -
 
Date/Time
EST
Temp

°C
Wind Pressure Rain
since 9am
mm
Weather Cloud Vis
km
Sea
Height
m
Swell
Dir
 
Speed
knots
Gust
knots
hPa Trend Height
m
Period
s
Dir
01/11:30pm 15.1 WNW 6 7 1022.9 - 0.0 - - - - - - -
01/11:00pm 15.7 NW 7 9 1022.8 - 0.0 - - - - - - -
01/10:30pm 15.7 NNW 7 8 1022.7 - 0.0 - - - - - - -
01/10:00pm 16.1 WNW 7 8 1022.9 - 0.0 - - - - - - -
01/09:30pm 15.6 WNW 6 7 1023.1 - 0.0 - - - - - - -
01/09:00pm 16.3 WNW 6 7 1022.8 - 0.0 - - - - - - -
01/08:30pm 16.3 WNW 7 9 1022.6 - 0.0 - - - - - - -
01/08:00pm 16.2 W 6 8 1022.4 - 0.0 - - - - - - -
01/07:30pm 16.8 NW 6 8 1022.0 - 0.0 - - - - - - -
01/07:00pm 17.5 NW 8 9 1021.7 - 0.0 - - - - - - -
01/06:30pm 17.7 NW 8 9 1021.5 - 0.0 - - - - - - -
01/06:00pm 17.9 NNW 9 10 1021.1 - 0.0 - - - - - - -
01/05:30pm 18.1 NNW 5 6 1021.1 - 0.0 - - - - - - -
01/05:00pm 19.2 NNW 9 12 1020.8 - 0.0 - - - - - - -
01/04:30pm 20.5 N 8 11 1020.8 - 0.0 - - - - - - -
01/04:00pm 21.0 N 12 15 1020.7 - 0.0 - - - - - - -
01/03:30pm 21.3 N 13 16 1020.7 - 0.0 - - - - - - -
01/03:00pm 22.1 N 12 15 1020.8 - 0.0 - - - - - - -
01/02:30pm 22.6 N 12 15 1020.8 - 0.0 - - - - - - -
01/02:00pm 22.3 N 10 14 1021.1 - 0.0 - - - - - - -
01/01:30pm 22.5 N 12 15 1021.0 - 0.0 - - - - - - -
01/01:00pm 22.7 N 13 16 1021.3 - 0.0 - - - - - - -
01/12:30pm 23.1 N 12 15 1022.0 - 0.0 - - - - - - -
01/12:00pm 22.3 N 10 14 1022.4 - 0.0 - - - - - - -
01/11:30am 22.1 N 9 13 1022.7 - 0.0 - - - - - - -
01/11:00am 21.3 NNW 8 9 1023.3 - 0.0 - - - - - - -
01/10:30am 21.4 NNW 8 11 1023.6 - 0.0 - - - - - - -
01/10:00am 20.7 WNW 6 8 1023.9 - 0.0 - - - - - - -
01/09:30am 19.6 W 3 4 1023.9 - 0.0 - - - - - - -
01/09:00am 18.5 W 4 5 1023.8 - 0.0 - - - - - - -
01/08:30am 16.9 WSW 5 6 1023.9 - 0.0 - - - - - - -
01/08:00am 15.3 WSW 5 6 1023.6 - 0.0 - - - - - - -
01/07:30am 13.7 WSW 1 4 1023.2 - 0.0 - - - - - - -
01/07:00am 12.7 WSW 3 4 1022.9 - 0.0 - - - - - - -
01/06:30am 12.0 WSW 5 6 1022.5 - 0.0 - - - - - - -
01/06:00am 12.5 W 5 7 1022.3 - 0.0 - - - - - - -
01/05:30am 12.9 WNW 7 7 1022.2 - 0.0 - - - - - - -
01/05:00am 12.8 W 7 7 1022.0 - 0.0 - - - - - - -
01/04:30am 12.8 WSW 7 8 1021.9 - 0.0 - - - - - - -
01/04:00am 12.7 WSW 6 7 1021.8 - 0.0 - - - - - - -
01/03:30am 12.9 WSW 6 8 1021.8 - 0.0 - - - - - - -
01/03:00am 12.5 SW 7 8 1022.0 - 0.0 - - - - - - -
01/02:30am 13.1 SW 8 8 1022.3 - 0.0 - - - - - - -
01/02:00am 13.0 SW 7 9 1022.3 - 0.0 - - - - - - -
01/01:30am 13.2 SW 7 8 1022.5 - 0.0 - - - - - - -
01/01:00am 13.3 W 6 7 1022.7 - 0.0 - - - - - - -
01/12:30am 13.3 W 6 7 1022.8 - 0.0 - - - - - - -
01/12:00am 13.6 WSW 7 8 1022.8 - 0.0 - - - - - - -
 
Date/Time
EST
Temp

°C
Wind Pressure Rain
since 9am
mm
Weather Cloud Vis
km
Sea
Height
m
Swell
Dir
 
Speed
knots
Gust
knots
hPa Trend Height
m
Period
s
Dir
31/11:30pm 13.4 SW 6 8 1022.8 - 0.0 - - - - - - -
31/11:00pm 13.8 SW 8 8 1022.7 - 0.0 - - - - - - -
31/10:30pm 13.7 SW 7 8 1022.8 - 0.0 - - - - - - -
31/10:00pm 14.1 SW 7 8 1022.7 - 0.0 - - - - - - -
31/09:30pm 14.7 WSW 6 7 1022.6 - 0.0 - - - - - - -
31/09:00pm 15.3 WSW 6 7 1022.4 - 0.0 - - - - - - -
31/08:30pm 15.2 SW 7 8 1022.1 - 0.0 - - - - - - -
31/08:00pm 16.1 SSE 4 7 1021.9 - 0.0 - - - - - - -
31/07:30pm 18.1 E 6 7 1021.8 - 0.0 - - - - - - -
31/07:00pm 18.7 ENE 7 9 1021.3 - 0.0 - - - - - - -
31/06:30pm 18.4 ENE 7 8 1020.6 - 0.0 - - - - - - -
31/06:00pm 17.6 NE 6 7 1020.2 - 0.0 - - - - - - -
31/05:30pm 18.8 ENE 6 8 1020.2 - 0.0 - - - - - - -
31/05:00pm 19.5 ENE 7 8 1020.2 - 0.0 - - - - - - -
31/04:30pm 20.5 ENE 8 8 1020.2 - 0.0 - - - - - - -
31/04:00pm 21.1 ENE 7 8 1020.1 - 0.0 - - - - - - -
31/03:30pm 22.0 ENE 8 10 1019.8 - 0.0 - - - - - - -
31/03:00pm 23.4 W 5 8 1019.9 - 0.0 - - - - - - -

Other Formats:

Comma delimited format used in spreadsheet applications
http://www.bom.gov.au/fwo/IDQ60701/IDQ60701.94580.axf

JavaScript Object Notation format (JSON) in row-major order
http://www.bom.gov.au/fwo/IDQ60701/IDQ60701.94580.json